Auberry, California
Current Conditions -  °F | °C
As of 10:53 AM on Thursday 30 Oct 2014 (Local Time) from KFAT Reporting Station
Broken Clouds Broken Clouds  
Wind Chill: 72°   Ceiling: 20000
Heat Index: 72°   Visibility: 7mi
Dew Point: 45°   Wind: 3mph
Humidity: 38%   Direction: 120°ESE
Pressure: 29.97"   Gusts: NA
Location:  37.08°N, 119.49°W
Report Text: KFAT 301753Z 12003KT 7SM FEW130 BKN200 22/07 A2997 RMK AO2 SLP145 MTNS OBSC HZ DSNT N-E-S T02220072 10222 20106 58003
Loading
Personal Weather Stations






























Interactive Weather Map
Tropical Storm Tracking
New forecast layout! Learn more

10-Day Weather Forecast

Advertisements
Track Severe Weather on mobile